sensor_id;sensor_type;location;lat;lon;timestamp;pressure;altitude;pressure_sealevel;temperature;humidity
75089;BME280;63673;49.928;8.150;2023-02-26T00:00:09;988.62;;;-2.04;100
75089;BME280;63673;49.928;8.150;2023-02-26T00:01:11;988.59;;;-2.04;100
75089;BME280;63673;49.928;8.150;2023-02-26T00:02:12;988.57;;;-2.03;100
75089;BME280;63673;49.928;8.150;2023-02-26T00:03:14;988.61;;;-2.02;100
75089;BME280;63673;49.928;8.150;2023-02-26T00:04:16;988.57;;;-2;100
75089;BME280;63673;49.928;8.150;2023-02-26T00:05:17;988.59;;;-2.01;100
75089;BME280;63673;49.928;8.150;2023-02-26T00:06:19;988.58;;;-1.99;100
75089;BME280;63673;49.928;8.150;2023-02-26T00:07:21;988.59;;;-1.98;100
75089;BME280;63673;49.928;8.150;2023-02-26T00:08:23;988.62;;;-1.97;100
75089;BME280;63673;49.928;8.150;2023-02-26T00:09:25;988.6;;;-1.96;100
75089;BME280;63673;49.928;8.150;2023-02-26T00:10:26;988.59;;;-1.96;100
75089;BME280;63673;49.928;8.150;2023-02-26T00:11:28;988.58;;;-1.96;100
75089;BME280;63673;49.928;8.150;2023-02-26T00:12:30;988.59;;;-1.95;100
75089;BME280;63673;49.928;8.150;2023-02-26T00:13:31;988.59;;;-1.94;100
75089;BME280;63673;49.928;8.150;2023-02-26T00:14:33;988.65;;;-1.93;100
75089;BME280;63673;49.928;8.150;2023-02-26T00:15:35;988.59;;;-1.94;100
75089;BME280;63673;49.928;8.150;2023-02-26T00:16:37;988.65;;;-1.93;100
75089;BME280;63673;49.928;8.150;2023-02-26T00:17:40;988.63;;;-1.93;100
75089;BME280;63673;49.928;8.150;2023-02-26T00:18:40;988.58;;;-1.94;100
75089;BME280;63673;49.928;8.150;2023-02-26T00:19:42;988.65;;;-1.94;100
75089;BME280;63673;49.928;8.150;2023-02-26T00:20:43;988.62;;;-1.93;100
75089;BME280;63673;49.928;8.150;2023-02-26T00:21:45;988.65;;;-1.95;100
75089;BME280;63673;49.928;8.150;2023-02-26T00:22:47;988.69;;;-1.95;100
75089;BME280;63673;49.928;8.150;2023-02-26T00:23:49;988.66;;;-1.97;100
75089;BME280;63673;49.928;8.150;2023-02-26T00:24:50;988.72;;;-1.98;100
75089;BME280;63673;49.928;8.150;2023-02-26T00:25:52;988.68;;;-2;100
75089;BME280;63673;49.928;8.150;2023-02-26T00:26:54;988.67;;;-2.01;100
75089;BME280;63673;49.928;8.150;2023-02-26T00:27:56;988.67;;;-2.03;100
75089;BME280;63673;49.928;8.150;2023-02-26T00:28:57;988.7;;;-2.02;100
75089;BME280;63673;49.928;8.150;2023-02-26T00:29:59;988.75;;;-2.03;100
75089;BME280;63673;49.928;8.150;2023-02-26T00:31:01;988.69;;;-2.03;100
75089;BME280;63673;49.928;8.150;2023-02-26T00:32:03;988.71;;;-2.02;100
75089;BME280;63673;49.928;8.150;2023-02-26T00:33:05;988.68;;;-2.03;100
75089;BME280;63673;49.928;8.150;2023-02-26T00:34:09;988.71;;;-2.03;100
75089;BME280;63673;49.928;8.150;2023-02-26T00:35:10;988.69;;;-2.01;100
75089;BME280;63673;49.928;8.150;2023-02-26T00:36:12;988.72;;;-2;100
75089;BME280;63673;49.928;8.150;2023-02-26T00:37:13;988.69;;;-1.98;100
75089;BME280;63673;49.928;8.150;2023-02-26T00:38:13;988.68;;;-1.97;100
75089;BME280;63673;49.928;8.150;2023-02-26T00:39:18;988.71;;;-1.97;100
75089;BME280;63673;49.928;8.150;2023-02-26T00:40:18;988.71;;;-1.94;100
75089;BME280;63673;49.928;8.150;2023-02-26T00:41:18;988.69;;;-1.92;100
75089;BME280;63673;49.928;8.150;2023-02-26T00:42:20;988.75;;;-1.92;100
75089;BME280;63673;49.928;8.150;2023-02-26T00:43:22;988.7;;;-1.89;100
75089;BME280;63673;49.928;8.150;2023-02-26T00:44:23;988.75;;;-1.87;100
75089;BME280;63673;49.928;8.150;2023-02-26T00:45:25;988.74;;;-1.86;100
75089;BME280;63673;49.928;8.150;2023-02-26T00:46:27;988.74;;;-1.85;100
75089;BME280;63673;49.928;8.150;2023-02-26T00:47:30;988.77;;;-1.84;100
75089;BME280;63673;49.928;8.150;2023-02-26T00:48:35;988.76;;;-1.81;100
75089;BME280;63673;49.928;8.150;2023-02-26T00:49:38;988.8;;;-1.79;100
75089;BME280;63673;49.928;8.150;2023-02-26T00:50:34;988.79;;;-1.78;100
75089;BME280;63673;49.928;8.150;2023-02-26T00:51:37;988.78;;;-1.78;100
75089;BME280;63673;49.928;8.150;2023-02-26T00:52:38;988.75;;;-1.76;100
75089;BME280;63673;49.928;8.150;2023-02-26T00:53:40;988.82;;;-1.75;100
75089;BME280;63673;49.928;8.150;2023-02-26T00:54:41;988.82;;;-1.72;100
75089;BME280;63673;49.928;8.150;2023-02-26T00:55:42;988.77;;;-1.72;100
75089;BME280;63673;49.928;8.150;2023-02-26T00:56:44;988.83;;;-1.71;100
75089;BME280;63673;49.928;8.150;2023-02-26T00:57:46;988.87;;;-1.69;100
75089;BME280;63673;49.928;8.150;2023-02-26T00:58:47;988.89;;;-1.67;100
75089;BME280;63673;49.928;8.150;2023-02-26T00:59:49;988.82;;;-1.66;100
75089;BME280;63673;49.928;8.150;2023-02-26T01:00:51;988.8;;;-1.66;100
75089;BME280;63673;49.928;8.150;2023-02-26T01:01:54;988.85;;;-1.65;100
75089;BME280;63673;49.928;8.150;2023-02-26T01:03:51;988.81;;;-1.63;100
75089;BME280;63673;49.928;8.150;2023-02-26T01:04:53;988.85;;;-1.62;100
75089;BME280;63673;49.928;8.150;2023-02-26T01:05:54;988.85;;;-1.6;100
75089;BME280;63673;49.928;8.150;2023-02-26T01:06:56;988.87;;;-1.59;100
75089;BME280;63673;49.928;8.150;2023-02-26T01:07:59;988.85;;;-1.58;100
75089;BME280;63673;49.928;8.150;2023-02-26T01:09:02;988.84;;;-1.57;100
75089;BME280;63673;49.928;8.150;2023-02-26T01:10:02;988.8;;;-1.55;100
75089;BME280;63673;49.928;8.150;2023-02-26T01:11:03;988.82;;;-1.55;100
75089;BME280;63673;49.928;8.150;2023-02-26T01:12:06;988.8;;;-1.53;100
75089;BME280;63673;49.928;8.150;2023-02-26T01:13:07;988.87;;;-1.51;100
75089;BME280;63673;49.928;8.150;2023-02-26T01:14:09;988.84;;;-1.49;100
75089;BME280;63673;49.928;8.150;2023-02-26T01:15:10;988.91;;;-1.48;100
75089;BME280;63673;49.928;8.150;2023-02-26T01:16:13;988.89;;;-1.47;100
75089;BME280;63673;49.928;8.150;2023-02-26T01:17:14;988.87;;;-1.45;100
75089;BME280;63673;49.928;8.150;2023-02-26T01:18:17;988.89;;;-1.44;100
75089;BME280;63673;49.928;8.150;2023-02-26T01:19:19;988.91;;;-1.42;100
75089;BME280;63673;49.928;8.150;2023-02-26T01:20:19;988.9;;;-1.41;100
75089;BME280;63673;49.928;8.150;2023-02-26T01:21:21;988.94;;;-1.4;100
75089;BME280;63673;49.928;8.150;2023-02-26T01:22:24;988.87;;;-1.38;100
75089;BME280;63673;49.928;8.150;2023-02-26T01:23:24;988.93;;;-1.38;100
75089;BME280;63673;49.928;8.150;2023-02-26T01:24:26;988.96;;;-1.36;100
75089;BME280;63673;49.928;8.150;2023-02-26T01:25:28;988.93;;;-1.37;100
75089;BME280;63673;49.928;8.150;2023-02-26T01:26:29;988.93;;;-1.36;100
75089;BME280;63673;49.928;8.150;2023-02-26T01:27:31;988.92;;;-1.34;100
75089;BME280;63673;49.928;8.150;2023-02-26T01:28:33;988.94;;;-1.34;100
75089;BME280;63673;49.928;8.150;2023-02-26T01:29:34;988.89;;;-1.33;100
75089;BME280;63673;49.928;8.150;2023-02-26T01:30:36;988.96;;;-1.31;100
75089;BME280;63673;49.928;8.150;2023-02-26T01:31:38;988.92;;;-1.31;100
75089;BME280;63673;49.928;8.150;2023-02-26T01:32:41;988.9;;;-1.31;100
75089;BME280;63673;49.928;8.150;2023-02-26T01:33:43;989;;;-1.3;100
75089;BME280;63673;49.928;8.150;2023-02-26T01:34:44;988.95;;;-1.28;100
75089;BME280;63673;49.928;8.150;2023-02-26T01:35:46;988.98;;;-1.28;100
75089;BME280;63673;49.928;8.150;2023-02-26T01:36:48;988.91;;;-1.26;100
75089;BME280;63673;49.928;8.150;2023-02-26T01:37:49;988.96;;;-1.27;100
75089;BME280;63673;49.928;8.150;2023-02-26T01:38:51;988.93;;;-1.26;100
75089;BME280;63673;49.928;8.150;2023-02-26T01:39:57;988.97;;;-1.26;100
75089;BME280;63673;49.928;8.150;2023-02-26T01:41:00;988.95;;;-1.26;100
75089;BME280;63673;49.928;8.150;2023-02-26T01:41:56;988.87;;;-1.25;100
75089;BME280;63673;49.928;8.150;2023-02-26T01:42:57;988.93;;;-1.25;100
75089;BME280;63673;49.928;8.150;2023-02-26T01:44:02;988.95;;;-1.25;100
75089;BME280;63673;49.928;8.150;2023-02-26T01:45:02;988.92;;;-1.24;100
75089;BME280;63673;49.928;8.150;2023-02-26T01:46:03;988.97;;;-1.23;100
75089;BME280;63673;49.928;8.150;2023-02-26T01:47:07;988.96;;;-1.24;100
75089;BME280;63673;49.928;8.150;2023-02-26T01:48:06;988.92;;;-1.22;100
75089;BME280;63673;49.928;8.150;2023-02-26T01:49:07;988.97;;;-1.23;100
75089;BME280;63673;49.928;8.150;2023-02-26T01:50:10;988.91;;;-1.23;100
75089;BME280;63673;49.928;8.150;2023-02-26T01:51:11;989;;;-1.23;100
75089;BME280;63673;49.928;8.150;2023-02-26T01:53:09;988.98;;;-1.21;100
75089;BME280;63673;49.928;8.150;2023-02-26T01:53:16;988.96;;;-1.22;100
75089;BME280;63673;49.928;8.150;2023-02-26T01:54:17;988.97;;;-1.21;100
75089;BME280;63673;49.928;8.150;2023-02-26T01:55:18;989.04;;;-1.2;100
75089;BME280;63673;49.928;8.150;2023-02-26T01:56:19;988.99;;;-1.2;100
75089;BME280;63673;49.928;8.150;2023-02-26T01:57:21;988.99;;;-1.21;100
75089;BME280;63673;49.928;8.150;2023-02-26T01:58:23;988.98;;;-1.21;100
75089;BME280;63673;49.928;8.150;2023-02-26T01:59:24;989.04;;;-1.19;100
75089;BME280;63673;49.928;8.150;2023-02-26T02:00:27;989.04;;;-1.19;100
75089;BME280;63673;49.928;8.150;2023-02-26T02:01:28;989.05;;;-1.19;100
75089;BME280;63673;49.928;8.150;2023-02-26T02:02:30;989.06;;;-1.18;100
75089;BME280;63673;49.928;8.150;2023-02-26T02:03:32;989.03;;;-1.18;100
75089;BME280;63673;49.928;8.150;2023-02-26T02:04:33;989.03;;;-1.17;100
75089;BME280;63673;49.928;8.150;2023-02-26T02:05:38;989.04;;;-1.17;100
75089;BME280;63673;49.928;8.150;2023-02-26T02:06:37;989.03;;;-1.16;100
75089;BME280;63673;49.928;8.150;2023-02-26T02:07:38;989.03;;;-1.14;100
75089;BME280;63673;49.928;8.150;2023-02-26T02:08:40;989.06;;;-1.14;100
75089;BME280;63673;49.928;8.150;2023-02-26T02:09:42;989.06;;;-1.13;100
75089;BME280;63673;49.928;8.150;2023-02-26T02:10:44;989.07;;;-1.13;100
75089;BME280;63673;49.928;8.150;2023-02-26T02:11:49;989.1;;;-1.12;100
75089;BME280;63673;49.928;8.150;2023-02-26T02:12:49;989.1;;;-1.11;100
75089;BME280;63673;49.928;8.150;2023-02-26T02:13:53;989.1;;;-1.1;100
75089;BME280;63673;49.928;8.150;2023-02-26T02:14:52;989.08;;;-1.11;100
75089;BME280;63673;49.928;8.150;2023-02-26T02:15:54;989.07;;;-1.11;100
75089;BME280;63673;49.928;8.150;2023-02-26T02:16:54;989;;;-1.1;100
75089;BME280;63673;49.928;8.150;2023-02-26T02:18:00;989.12;;;-1.1;100
75089;BME280;63673;49.928;8.150;2023-02-26T02:18:59;989.1;;;-1.11;100
75089;BME280;63673;49.928;8.150;2023-02-26T02:20:07;989.05;;;-1.11;100
75089;BME280;63673;49.928;8.150;2023-02-26T02:21:07;989.1;;;-1.11;100
75089;BME280;63673;49.928;8.150;2023-02-26T02:22:08;989.07;;;-1.12;100
75089;BME280;63673;49.928;8.150;2023-02-26T02:23:09;989.1;;;-1.12;100
75089;BME280;63673;49.928;8.150;2023-02-26T02:24:08;989.1;;;-1.13;100
75089;BME280;63673;49.928;8.150;2023-02-26T02:25:12;989.13;;;-1.14;100
75089;BME280;63673;49.928;8.150;2023-02-26T02:26:17;988.99;;;-1.14;100
75089;BME280;63673;49.928;8.150;2023-02-26T02:27:12;989.11;;;-1.16;100
75089;BME280;63673;49.928;8.150;2023-02-26T02:28:16;989.14;;;-1.16;100
75089;BME280;63673;49.928;8.150;2023-02-26T02:29:20;989.08;;;-1.15;100
75089;BME280;63673;49.928;8.150;2023-02-26T02:30:21;989.12;;;-1.17;100
75089;BME280;63673;49.928;8.150;2023-02-26T02:31:19;989.11;;;-1.17;100
75089;BME280;63673;49.928;8.150;2023-02-26T02:32:20;989.13;;;-1.18;100
75089;BME280;63673;49.928;8.150;2023-02-26T02:33:22;989.19;;;-1.19;100
75089;BME280;63673;49.928;8.150;2023-02-26T02:34:25;989.22;;;-1.18;100
75089;BME280;63673;49.928;8.150;2023-02-26T02:35:27;989.19;;;-1.18;100
75089;BME280;63673;49.928;8.150;2023-02-26T02:36:28;989.18;;;-1.18;100
75089;BME280;63673;49.928;8.150;2023-02-26T02:37:29;989.18;;;-1.18;100
75089;BME280;63673;49.928;8.150;2023-02-26T02:38:32;989.22;;;-1.19;100
75089;BME280;63673;49.928;8.150;2023-02-26T02:39:33;989.23;;;-1.18;100
75089;BME280;63673;49.928;8.150;2023-02-26T02:40:34;989.24;;;-1.19;100
75089;BME280;63673;49.928;8.150;2023-02-26T02:41:36;989.25;;;-1.19;100
75089;BME280;63673;49.928;8.150;2023-02-26T02:42:38;989.27;;;-1.2;100
75089;BME280;63673;49.928;8.150;2023-02-26T02:43:39;989.31;;;-1.2;100
75089;BME280;63673;49.928;8.150;2023-02-26T02:44:42;989.26;;;-1.2;100
75089;BME280;63673;49.928;8.150;2023-02-26T02:45:43;989.33;;;-1.19;100
75089;BME280;63673;49.928;8.150;2023-02-26T02:46:45;989.28;;;-1.21;100
75089;BME280;63673;49.928;8.150;2023-02-26T02:47:47;989.36;;;-1.24;100
75089;BME280;63673;49.928;8.150;2023-02-26T02:48:48;989.28;;;-1.24;100
75089;BME280;63673;49.928;8.150;2023-02-26T02:49:50;989.33;;;-1.24;100
75089;BME280;63673;49.928;8.150;2023-02-26T02:50:53;989.34;;;-1.26;100
75089;BME280;63673;49.928;8.150;2023-02-26T02:51:54;989.3;;;-1.27;100
75089;BME280;63673;49.928;8.150;2023-02-26T02:52:55;989.38;;;-1.27;100
75089;BME280;63673;49.928;8.150;2023-02-26T02:53:58;989.36;;;-1.28;100
75089;BME280;63673;49.928;8.150;2023-02-26T02:55:00;989.32;;;-1.29;100
75089;BME280;63673;49.928;8.150;2023-02-26T02:56:01;989.34;;;-1.29;100
75089;BME280;63673;49.928;8.150;2023-02-26T02:57:02;989.33;;;-1.29;100
75089;BME280;63673;49.928;8.150;2023-02-26T02:58:04;989.36;;;-1.3;100
75089;BME280;63673;49.928;8.150;2023-02-26T02:59:06;989.34;;;-1.31;100
75089;BME280;63673;49.928;8.150;2023-02-26T03:00:08;989.37;;;-1.31;100
75089;BME280;63673;49.928;8.150;2023-02-26T03:01:10;989.39;;;-1.31;100
75089;BME280;63673;49.928;8.150;2023-02-26T03:02:12;989.44;;;-1.32;100
75089;BME280;63673;49.928;8.150;2023-02-26T03:03:14;989.43;;;-1.31;100
75089;BME280;63673;49.928;8.150;2023-02-26T03:04:14;989.42;;;-1.32;100
75089;BME280;63673;49.928;8.150;2023-02-26T03:05:15;989.43;;;-1.32;100
75089;BME280;63673;49.928;8.150;2023-02-26T03:06:17;989.46;;;-1.32;100
75089;BME280;63673;49.928;8.150;2023-02-26T03:07:19;989.43;;;-1.31;100
75089;BME280;63673;49.928;8.150;2023-02-26T03:08:21;989.49;;;-1.32;100
75089;BME280;63673;49.928;8.150;2023-02-26T03:09:22;989.48;;;-1.32;100
75089;BME280;63673;49.928;8.150;2023-02-26T03:10:24;989.48;;;-1.32;100
75089;BME280;63673;49.928;8.150;2023-02-26T03:11:26;989.43;;;-1.34;100
75089;BME280;63673;49.928;8.150;2023-02-26T03:12:30;989.55;;;-1.32;100
75089;BME280;63673;49.928;8.150;2023-02-26T03:13:29;989.53;;;-1.34;100
75089;BME280;63673;49.928;8.150;2023-02-26T03:14:31;989.53;;;-1.33;100
75089;BME280;63673;49.928;8.150;2023-02-26T03:15:35;989.56;;;-1.35;100
75089;BME280;63673;49.928;8.150;2023-02-26T03:16:39;989.55;;;-1.35;100
75089;BME280;63673;49.928;8.150;2023-02-26T03:17:38;989.57;;;-1.35;100
75089;BME280;63673;49.928;8.150;2023-02-26T03:18:40;989.51;;;-1.36;100
75089;BME280;63673;49.928;8.150;2023-02-26T03:19:42;989.54;;;-1.36;100
75089;BME280;63673;49.928;8.150;2023-02-26T03:20:43;989.58;;;-1.36;100
75089;BME280;63673;49.928;8.150;2023-02-26T03:21:46;989.56;;;-1.36;100
75089;BME280;63673;49.928;8.150;2023-02-26T03:22:47;989.54;;;-1.36;100
75089;BME280;63673;49.928;8.150;2023-02-26T03:23:48;989.54;;;-1.36;100
75089;BME280;63673;49.928;8.150;2023-02-26T03:24:50;989.58;;;-1.37;100
75089;BME280;63673;49.928;8.150;2023-02-26T03:25:50;989.54;;;-1.39;100
75089;BME280;63673;49.928;8.150;2023-02-26T03:26:54;989.54;;;-1.39;100
75089;BME280;63673;49.928;8.150;2023-02-26T03:27:54;989.53;;;-1.39;100
75089;BME280;63673;49.928;8.150;2023-02-26T03:28:56;989.6;;;-1.41;100
75089;BME280;63673;49.928;8.150;2023-02-26T03:29:58;989.57;;;-1.42;100
75089;BME280;63673;49.928;8.150;2023-02-26T03:31:00;989.62;;;-1.43;100
75089;BME280;63673;49.928;8.150;2023-02-26T03:32:01;989.64;;;-1.44;100
75089;BME280;63673;49.928;8.150;2023-02-26T03:33:04;989.63;;;-1.45;100
75089;BME280;63673;49.928;8.150;2023-02-26T03:34:05;989.62;;;-1.45;100
75089;BME280;63673;49.928;8.150;2023-02-26T03:35:06;989.65;;;-1.48;100
75089;BME280;63673;49.928;8.150;2023-02-26T03:36:09;989.66;;;-1.49;100
75089;BME280;63673;49.928;8.150;2023-02-26T03:37:10;989.64;;;-1.5;100
75089;BME280;63673;49.928;8.150;2023-02-26T03:38:12;989.71;;;-1.51;100
75089;BME280;63673;49.928;8.150;2023-02-26T03:39:13;989.72;;;-1.54;100
75089;BME280;63673;49.928;8.150;2023-02-26T03:40:15;989.69;;;-1.55;100
75089;BME280;63673;49.928;8.150;2023-02-26T03:41:17;989.75;;;-1.57;100
75089;BME280;63673;49.928;8.150;2023-02-26T03:42:19;989.69;;;-1.58;100
75089;BME280;63673;49.928;8.150;2023-02-26T03:43:21;989.66;;;-1.6;100
75089;BME280;63673;49.928;8.150;2023-02-26T03:44:22;989.74;;;-1.62;100
75089;BME280;63673;49.928;8.150;2023-02-26T03:45:24;989.74;;;-1.63;100
75089;BME280;63673;49.928;8.150;2023-02-26T03:46:25;989.68;;;-1.65;100
75089;BME280;63673;49.928;8.150;2023-02-26T03:47:26;989.79;;;-1.66;100
75089;BME280;63673;49.928;8.150;2023-02-26T03:48:28;989.8;;;-1.67;100
75089;BME280;63673;49.928;8.150;2023-02-26T03:49:30;989.76;;;-1.68;100
75089;BME280;63673;49.928;8.150;2023-02-26T03:50:33;989.77;;;-1.69;100
75089;BME280;63673;49.928;8.150;2023-02-26T03:51:33;989.74;;;-1.7;100
75089;BME280;63673;49.928;8.150;2023-02-26T03:52:36;989.77;;;-1.73;100
75089;BME280;63673;49.928;8.150;2023-02-26T03:53:37;989.76;;;-1.74;100
75089;BME280;63673;49.928;8.150;2023-02-26T03:54:40;989.8;;;-1.75;100
75089;BME280;63673;49.928;8.150;2023-02-26T03:55:41;989.74;;;-1.77;100
75089;BME280;63673;49.928;8.150;2023-02-26T03:56:43;989.74;;;-1.77;100
75089;BME280;63673;49.928;8.150;2023-02-26T03:57:44;989.77;;;-1.79;100
75089;BME280;63673;49.928;8.150;2023-02-26T03:58:46;989.81;;;-1.8;100
75089;BME280;63673;49.928;8.150;2023-02-26T03:59:47;989.84;;;-1.82;100
75089;BME280;63673;49.928;8.150;2023-02-26T04:00:51;989.89;;;-1.83;100
75089;BME280;63673;49.928;8.150;2023-02-26T04:01:52;989.91;;;-1.84;100
75089;BME280;63673;49.928;8.150;2023-02-26T04:02:54;989.87;;;-1.86;100
75089;BME280;63673;49.928;8.150;2023-02-26T04:03:56;989.91;;;-1.86;100
75089;BME280;63673;49.928;8.150;2023-02-26T04:04:58;989.92;;;-1.89;100
75089;BME280;63673;49.928;8.150;2023-02-26T04:05:58;989.99;;;-1.9;100
75089;BME280;63673;49.928;8.150;2023-02-26T04:06:59;989.95;;;-1.93;100
75089;BME280;63673;49.928;8.150;2023-02-26T04:08:01;989.94;;;-1.95;100
75089;BME280;63673;49.928;8.150;2023-02-26T04:09:03;989.97;;;-1.96;100
75089;BME280;63673;49.928;8.150;2023-02-26T04:10:05;989.92;;;-1.98;100
75089;BME280;63673;49.928;8.150;2023-02-26T04:11:08;990.01;;;-2;100
75089;BME280;63673;49.928;8.150;2023-02-26T04:12:08;989.98;;;-2.02;100
75089;BME280;63673;49.928;8.150;2023-02-26T04:13:10;990;;;-2.05;100
75089;BME280;63673;49.928;8.150;2023-02-26T04:14:12;990;;;-2.05;100
75089;BME280;63673;49.928;8.150;2023-02-26T04:15:13;989.99;;;-2.07;100
75089;BME280;63673;49.928;8.150;2023-02-26T04:16:15;990.07;;;-2.09;100
75089;BME280;63673;49.928;8.150;2023-02-26T04:17:17;990.04;;;-2.11;100
75089;BME280;63673;49.928;8.150;2023-02-26T04:18:18;990.1;;;-2.12;100
75089;BME280;63673;49.928;8.150;2023-02-26T04:19:20;990.05;;;-2.15;100
75089;BME280;63673;49.928;8.150;2023-02-26T04:20:22;990.07;;;-2.17;100
75089;BME280;63673;49.928;8.150;2023-02-26T04:21:24;990.07;;;-2.18;100
75089;BME280;63673;49.928;8.150;2023-02-26T04:22:25;990.07;;;-2.2;100
75089;BME280;63673;49.928;8.150;2023-02-26T04:23:27;990.12;;;-2.21;100
75089;BME280;63673;49.928;8.150;2023-02-26T04:24:29;990.11;;;-2.25;100
75089;BME280;63673;49.928;8.150;2023-02-26T04:25:31;990.14;;;-2.24;100
75089;BME280;63673;49.928;8.150;2023-02-26T04:26:32;990.06;;;-2.27;100
75089;BME280;63673;49.928;8.150;2023-02-26T04:27:34;990.07;;;-2.29;100
75089;BME280;63673;49.928;8.150;2023-02-26T04:28:36;990.12;;;-2.3;100
75089;BME280;63673;49.928;8.150;2023-02-26T04:29:38;990.17;;;-2.31;100
75089;BME280;63673;49.928;8.150;2023-02-26T04:30:39;990.14;;;-2.33;100
75089;BME280;63673;49.928;8.150;2023-02-26T04:31:41;990.19;;;-2.34;100
75089;BME280;63673;49.928;8.150;2023-02-26T04:32:43;990.13;;;-2.35;100
75089;BME280;63673;49.928;8.150;2023-02-26T04:33:44;990.16;;;-2.35;100
75089;BME280;63673;49.928;8.150;2023-02-26T04:34:46;990.12;;;-2.39;100
75089;BME280;63673;49.928;8.150;2023-02-26T04:35:48;990.18;;;-2.39;100
75089;BME280;63673;49.928;8.150;2023-02-26T04:36:50;990.21;;;-2.42;100
75089;BME280;63673;49.928;8.150;2023-02-26T04:37:51;990.23;;;-2.43;100
75089;BME280;63673;49.928;8.150;2023-02-26T04:38:53;990.18;;;-2.44;100
75089;BME280;63673;49.928;8.150;2023-02-26T04:39:55;990.3;;;-2.44;100
75089;BME280;63673;49.928;8.150;2023-02-26T04:40:57;990.28;;;-2.46;100
75089;BME280;63673;49.928;8.150;2023-02-26T04:41:58;990.24;;;-2.48;100
75089;BME280;63673;49.928;8.150;2023-02-26T04:43:00;990.27;;;-2.49;100
75089;BME280;63673;49.928;8.150;2023-02-26T04:44:02;990.29;;;-2.5;100
75089;BME280;63673;49.928;8.150;2023-02-26T04:45:04;990.34;;;-2.5;100
75089;BME280;63673;49.928;8.150;2023-02-26T04:46:05;990.31;;;-2.5;100
75089;BME280;63673;49.928;8.150;2023-02-26T04:47:07;990.34;;;-2.52;100
75089;BME280;63673;49.928;8.150;2023-02-26T04:48:09;990.41;;;-2.52;100
75089;BME280;63673;49.928;8.150;2023-02-26T04:49:10;990.33;;;-2.53;100
75089;BME280;63673;49.928;8.150;2023-02-26T04:50:12;990.37;;;-2.53;100
75089;BME280;63673;49.928;8.150;2023-02-26T04:51:14;990.41;;;-2.54;100
75089;BME280;63673;49.928;8.150;2023-02-26T04:52:16;990.39;;;-2.55;100
75089;BME280;63673;49.928;8.150;2023-02-26T04:53:17;990.36;;;-2.55;100
75089;BME280;63673;49.928;8.150;2023-02-26T04:54:19;990.4;;;-2.54;100
75089;BME280;63673;49.928;8.150;2023-02-26T04:55:21;990.43;;;-2.57;100
75089;BME280;63673;49.928;8.150;2023-02-26T04:56:23;990.45;;;-2.56;100
75089;BME280;63673;49.928;8.150;2023-02-26T04:57:24;990.42;;;-2.56;100
75089;BME280;63673;49.928;8.150;2023-02-26T04:58:26;990.38;;;-2.56;100
75089;BME280;63673;49.928;8.150;2023-02-26T04:59:28;990.45;;;-2.57;100
75089;BME280;63673;49.928;8.150;2023-02-26T05:00:30;990.46;;;-2.59;100
75089;BME280;63673;49.928;8.150;2023-02-26T05:01:31;990.45;;;-2.58;100
75089;BME280;63673;49.928;8.150;2023-02-26T05:02:33;990.45;;;-2.59;100
75089;BME280;63673;49.928;8.150;2023-02-26T05:03:35;990.47;;;-2.6;100
75089;BME280;63673;49.928;8.150;2023-02-26T05:04:36;990.55;;;-2.61;100
75089;BME280;63673;49.928;8.150;2023-02-26T05:05:38;990.54;;;-2.62;100
75089;BME280;63673;49.928;8.150;2023-02-26T05:06:40;990.56;;;-2.64;100
75089;BME280;63673;49.928;8.150;2023-02-26T05:07:42;990.58;;;-2.65;100
75089;BME280;63673;49.928;8.150;2023-02-26T05:08:43;990.52;;;-2.66;100
75089;BME280;63673;49.928;8.150;2023-02-26T05:09:45;990.54;;;-2.68;100
75089;BME280;63673;49.928;8.150;2023-02-26T05:10:47;990.48;;;-2.68;100
75089;BME280;63673;49.928;8.150;2023-02-26T05:11:49;990.57;;;-2.71;100
75089;BME280;63673;49.928;8.150;2023-02-26T05:12:50;990.58;;;-2.72;100
75089;BME280;63673;49.928;8.150;2023-02-26T05:13:52;990.56;;;-2.75;100
75089;BME280;63673;49.928;8.150;2023-02-26T05:14:54;990.6;;;-2.75;100
75089;BME280;63673;49.928;8.150;2023-02-26T05:15:56;990.59;;;-2.77;100
75089;BME280;63673;49.928;8.150;2023-02-26T05:16:57;990.57;;;-2.77;100
75089;BME280;63673;49.928;8.150;2023-02-26T05:17:59;990.62;;;-2.79;100
75089;BME280;63673;49.928;8.150;2023-02-26T05:19:01;990.67;;;-2.8;100
75089;BME280;63673;49.928;8.150;2023-02-26T05:20:03;990.62;;;-2.8;100
75089;BME280;63673;49.928;8.150;2023-02-26T05:21:04;990.68;;;-2.82;100
75089;BME280;63673;49.928;8.150;2023-02-26T05:22:06;990.64;;;-2.83;100
75089;BME280;63673;49.928;8.150;2023-02-26T05:23:08;990.62;;;-2.84;100
75089;BME280;63673;49.928;8.150;2023-02-26T05:24:09;990.66;;;-2.83;100
75089;BME280;63673;49.928;8.150;2023-02-26T05:25:11;990.63;;;-2.84;100
75089;BME280;63673;49.928;8.150;2023-02-26T05:26:13;990.64;;;-2.84;100
75089;BME280;63673;49.928;8.150;2023-02-26T05:27:15;990.66;;;-2.86;100
75089;BME280;63673;49.928;8.150;2023-02-26T05:28:16;990.68;;;-2.85;100
75089;BME280;63673;49.928;8.150;2023-02-26T05:29:18;990.68;;;-2.85;100
75089;BME280;63673;49.928;8.150;2023-02-26T05:30:20;990.69;;;-2.86;100
75089;BME280;63673;49.928;8.150;2023-02-26T05:31:22;990.72;;;-2.84;100
75089;BME280;63673;49.928;8.150;2023-02-26T05:32:23;990.74;;;-2.86;100
75089;BME280;63673;49.928;8.150;2023-02-26T05:33:25;990.79;;;-2.85;100
75089;BME280;63673;49.928;8.150;2023-02-26T05:34:27;990.78;;;-2.85;100
75089;BME280;63673;49.928;8.150;2023-02-26T05:35:28;990.73;;;-2.84;100
75089;BME280;63673;49.928;8.150;2023-02-26T05:36:30;990.86;;;-2.83;100
75089;BME280;63673;49.928;8.150;2023-02-26T05:37:32;990.82;;;-2.82;100
75089;BME280;63673;49.928;8.150;2023-02-26T05:38:34;990.88;;;-2.8;100
75089;BME280;63673;49.928;8.150;2023-02-26T05:39:35;990.85;;;-2.81;100
75089;BME280;63673;49.928;8.150;2023-02-26T05:40:37;990.9;;;-2.8;100
75089;BME280;63673;49.928;8.150;2023-02-26T05:41:39;990.93;;;-2.79;100
75089;BME280;63673;49.928;8.150;2023-02-26T05:42:41;990.97;;;-2.78;100
75089;BME280;63673;49.928;8.150;2023-02-26T05:43:42;990.92;;;-2.77;100
75089;BME280;63673;49.928;8.150;2023-02-26T05:44:44;990.96;;;-2.77;100
75089;BME280;63673;49.928;8.150;2023-02-26T05:45:48;991.01;;;-2.75;100
75089;BME280;63673;49.928;8.150;2023-02-26T05:46:48;991.04;;;-2.76;100